Caliente, California
Current Conditions -  °F | °C
As of 10:15 AM on Thursday 18 Dec 2014 (Local Time) from KTSP Reporting Station
Overcast Overcast  
Wind Chill: 40°   Ceiling: 3000
Heat Index: 43°   Visibility: 10mi
Dew Point: 34°   Wind: 5mph
Humidity: 70%   Direction: 120°ESE
Pressure: 30.2"   Gusts: NA
Location:  35.29°N, 118.63°W
Report Text: KTSP 181815Z AUTO 12004KT 10SM OVC030 06/01 A3020 RMK AO2
Loading
Personal Weather Stations






























Interactive Weather Map New forecast layout! Learn more

10-Day Weather Forecast

Advertisements
Track Severe Weather on mobile